sensor_id;sensor_type;location;lat;lon;timestamp;P1;durP1;ratioP1;P2;durP2;ratioP2
9485;SDS011;4781;48.776;9.200;2024-01-11T00:01:51;14.00;;;6.87;;
9485;SDS011;4781;48.776;9.200;2024-01-11T00:04:19;13.98;;;7.95;;
9485;SDS011;4781;48.776;9.200;2024-01-11T00:06:49;11.00;;;5.70;;
9485;SDS011;4781;48.776;9.200;2024-01-11T00:09:18;15.75;;;7.33;;
9485;SDS011;4781;48.776;9.200;2024-01-11T00:11:46;14.38;;;6.67;;
9485;SDS011;4781;48.776;9.200;2024-01-11T00:14:15;18.65;;;7.47;;
9485;SDS011;4781;48.776;9.200;2024-01-11T00:16:43;14.70;;;7.05;;
9485;SDS011;4781;48.776;9.200;2024-01-11T00:19:11;14.58;;;6.90;;
9485;SDS011;4781;48.776;9.200;2024-01-11T00:21:40;19.52;;;7.78;;
9485;SDS011;4781;48.776;9.200;2024-01-11T00:24:08;15.08;;;5.87;;
9485;SDS011;4781;48.776;9.200;2024-01-11T00:26:36;16.23;;;8.15;;
9485;SDS011;4781;48.776;9.200;2024-01-11T00:29:05;14.53;;;7.33;;
9485;SDS011;4781;48.776;9.200;2024-01-11T00:31:33;12.98;;;6.10;;
9485;SDS011;4781;48.776;9.200;2024-01-11T00:34:03;15.72;;;6.80;;
9485;SDS011;4781;48.776;9.200;2024-01-11T00:36:31;11.88;;;6.87;;
9485;SDS011;4781;48.776;9.200;2024-01-11T00:39:02;14.95;;;8.03;;
9485;SDS011;4781;48.776;9.200;2024-01-11T00:41:30;17.85;;;7.53;;
9485;SDS011;4781;48.776;9.200;2024-01-11T00:43:59;11.83;;;7.12;;
9485;SDS011;4781;48.776;9.200;2024-01-11T00:46:27;15.83;;;7.90;;
9485;SDS011;4781;48.776;9.200;2024-01-11T00:48:55;16.95;;;7.92;;
9485;SDS011;4781;48.776;9.200;2024-01-11T00:51:24;25.68;;;8.08;;
9485;SDS011;4781;48.776;9.200;2024-01-11T00:53:52;15.13;;;6.70;;
9485;SDS011;4781;48.776;9.200;2024-01-11T00:56:21;18.40;;;8.03;;
9485;SDS011;4781;48.776;9.200;2024-01-11T00:58:49;12.45;;;6.35;;
9485;SDS011;4781;48.776;9.200;2024-01-11T01:01:18;11.30;;;6.25;;
9485;SDS011;4781;48.776;9.200;2024-01-11T01:03:46;9.70;;;6.12;;
9485;SDS011;4781;48.776;9.200;2024-01-11T01:06:14;15.00;;;6.70;;
9485;SDS011;4781;48.776;9.200;2024-01-11T01:08:43;15.68;;;6.37;;
9485;SDS011;4781;48.776;9.200;2024-01-11T01:11:11;10.32;;;5.87;;
9485;SDS011;4781;48.776;9.200;2024-01-11T01:13:40;11.00;;;4.70;;
9485;SDS011;4781;48.776;9.200;2024-01-11T01:16:08;12.28;;;6.75;;
9485;SDS011;4781;48.776;9.200;2024-01-11T01:18:36;17.35;;;6.90;;
9485;SDS011;4781;48.776;9.200;2024-01-11T01:21:05;15.78;;;6.70;;
9485;SDS011;4781;48.776;9.200;2024-01-11T01:23:33;16.60;;;7.92;;
9485;SDS011;4781;48.776;9.200;2024-01-11T01:26:02;14.33;;;6.97;;
9485;SDS011;4781;48.776;9.200;2024-01-11T01:28:30;13.32;;;6.47;;
9485;SDS011;4781;48.776;9.200;2024-01-11T01:30:58;13.88;;;7.53;;
9485;SDS011;4781;48.776;9.200;2024-01-11T01:33:27;13.13;;;5.25;;
9485;SDS011;4781;48.776;9.200;2024-01-11T01:35:55;12.68;;;6.30;;
9485;SDS011;4781;48.776;9.200;2024-01-11T01:38:24;13.85;;;6.15;;
9485;SDS011;4781;48.776;9.200;2024-01-11T01:40:52;12.78;;;6.03;;
9485;SDS011;4781;48.776;9.200;2024-01-11T01:43:20;13.10;;;6.08;;
9485;SDS011;4781;48.776;9.200;2024-01-11T01:45:49;15.23;;;7.35;;
9485;SDS011;4781;48.776;9.200;2024-01-11T01:48:17;12.10;;;6.62;;
9485;SDS011;4781;48.776;9.200;2024-01-11T01:50:46;14.30;;;7.15;;
9485;SDS011;4781;48.776;9.200;2024-01-11T01:53:19;10.55;;;6.62;;
9485;SDS011;4781;48.776;9.200;2024-01-11T01:55:49;17.23;;;9.15;;
9485;SDS011;4781;48.776;9.200;2024-01-11T01:58:19;14.68;;;5.12;;
9485;SDS011;4781;48.776;9.200;2024-01-11T02:00:49;11.25;;;7.05;;
9485;SDS011;4781;48.776;9.200;2024-01-11T02:03:19;8.60;;;6.22;;
9485;SDS011;4781;48.776;9.200;2024-01-11T02:05:48;14.15;;;6.75;;
9485;SDS011;4781;48.776;9.200;2024-01-11T02:08:17;10.58;;;6.75;;
9485;SDS011;4781;48.776;9.200;2024-01-11T02:10:52;10.68;;;5.30;;
9485;SDS011;4781;48.776;9.200;2024-01-11T02:13:20;13.70;;;5.62;;
9485;SDS011;4781;48.776;9.200;2024-01-11T02:15:49;12.55;;;6.03;;
9485;SDS011;4781;48.776;9.200;2024-01-11T02:18:17;14.85;;;7.25;;
9485;SDS011;4781;48.776;9.200;2024-01-11T02:20:46;12.33;;;5.75;;
9485;SDS011;4781;48.776;9.200;2024-01-11T02:23:16;16.12;;;6.75;;
9485;SDS011;4781;48.776;9.200;2024-01-11T02:25:48;13.90;;;6.77;;
9485;SDS011;4781;48.776;9.200;2024-01-11T02:28:17;11.15;;;6.30;;
9485;SDS011;4781;48.776;9.200;2024-01-11T02:30:47;14.98;;;6.00;;
9485;SDS011;4781;48.776;9.200;2024-01-11T02:33:15;17.73;;;6.75;;
9485;SDS011;4781;48.776;9.200;2024-01-11T02:35:44;16.67;;;6.70;;
9485;SDS011;4781;48.776;9.200;2024-01-11T02:38:12;13.83;;;6.83;;
9485;SDS011;4781;48.776;9.200;2024-01-11T02:40:41;13.70;;;6.10;;
9485;SDS011;4781;48.776;9.200;2024-01-11T02:43:11;10.88;;;5.85;;
9485;SDS011;4781;48.776;9.200;2024-01-11T02:45:40;11.38;;;6.62;;
9485;SDS011;4781;48.776;9.200;2024-01-11T02:48:08;13.68;;;6.75;;
9485;SDS011;4781;48.776;9.200;2024-01-11T02:50:37;11.48;;;6.40;;
9485;SDS011;4781;48.776;9.200;2024-01-11T02:53:05;13.48;;;6.40;;
9485;SDS011;4781;48.776;9.200;2024-01-11T02:55:33;12.30;;;6.17;;
9485;SDS011;4781;48.776;9.200;2024-01-11T02:58:02;18.52;;;5.85;;
9485;SDS011;4781;48.776;9.200;2024-01-11T03:00:30;14.33;;;6.10;;
9485;SDS011;4781;48.776;9.200;2024-01-11T03:02:59;16.67;;;5.37;;
9485;SDS011;4781;48.776;9.200;2024-01-11T03:05:27;12.25;;;6.60;;
9485;SDS011;4781;48.776;9.200;2024-01-11T03:07:55;11.70;;;6.58;;
9485;SDS011;4781;48.776;9.200;2024-01-11T03:10:24;10.05;;;7.12;;
9485;SDS011;4781;48.776;9.200;2024-01-11T03:12:52;10.93;;;6.50;;
9485;SDS011;4781;48.776;9.200;2024-01-11T03:15:20;14.35;;;7.67;;
9485;SDS011;4781;48.776;9.200;2024-01-11T03:17:49;17.85;;;6.78;;
9485;SDS011;4781;48.776;9.200;2024-01-11T03:20:17;13.80;;;6.75;;
9485;SDS011;4781;48.776;9.200;2024-01-11T03:22:47;12.88;;;6.72;;
9485;SDS011;4781;48.776;9.200;2024-01-11T03:25:16;13.50;;;5.67;;
9485;SDS011;4781;48.776;9.200;2024-01-11T03:27:44;13.95;;;6.95;;
9485;SDS011;4781;48.776;9.200;2024-01-11T03:30:13;11.60;;;6.33;;
9485;SDS011;4781;48.776;9.200;2024-01-11T03:32:42;15.08;;;6.62;;
9485;SDS011;4781;48.776;9.200;2024-01-11T03:35:10;16.35;;;7.72;;
9485;SDS011;4781;48.776;9.200;2024-01-11T03:37:39;14.83;;;7.42;;
9485;SDS011;4781;48.776;9.200;2024-01-11T03:40:07;13.72;;;7.15;;
9485;SDS011;4781;48.776;9.200;2024-01-11T03:42:36;13.22;;;6.53;;
9485;SDS011;4781;48.776;9.200;2024-01-11T03:45:04;12.78;;;6.90;;
9485;SDS011;4781;48.776;9.200;2024-01-11T03:47:33;11.88;;;5.58;;
9485;SDS011;4781;48.776;9.200;2024-01-11T03:50:02;14.00;;;6.37;;
9485;SDS011;4781;48.776;9.200;2024-01-11T03:52:31;17.10;;;7.65;;
9485;SDS011;4781;48.776;9.200;2024-01-11T03:54:59;12.23;;;5.72;;
9485;SDS011;4781;48.776;9.200;2024-01-11T03:57:27;9.90;;;6.17;;
9485;SDS011;4781;48.776;9.200;2024-01-11T03:59:56;16.30;;;6.60;;
9485;SDS011;4781;48.776;9.200;2024-01-11T04:02:25;8.85;;;5.42;;
9485;SDS011;4781;48.776;9.200;2024-01-11T04:04:53;10.63;;;6.70;;
9485;SDS011;4781;48.776;9.200;2024-01-11T04:07:21;14.95;;;6.53;;
9485;SDS011;4781;48.776;9.200;2024-01-11T04:09:50;13.45;;;5.42;;
9485;SDS011;4781;48.776;9.200;2024-01-11T04:12:18;16.40;;;6.03;;
9485;SDS011;4781;48.776;9.200;2024-01-11T04:14:47;10.28;;;5.40;;
9485;SDS011;4781;48.776;9.200;2024-01-11T04:17:15;10.98;;;6.12;;
9485;SDS011;4781;48.776;9.200;2024-01-11T04:19:43;11.20;;;6.65;;
9485;SDS011;4781;48.776;9.200;2024-01-11T04:22:12;10.45;;;5.87;;
9485;SDS011;4781;48.776;9.200;2024-01-11T04:24:41;10.50;;;5.67;;
9485;SDS011;4781;48.776;9.200;2024-01-11T04:27:10;9.90;;;6.20;;
9485;SDS011;4781;48.776;9.200;2024-01-11T04:29:38;11.12;;;5.78;;
9485;SDS011;4781;48.776;9.200;2024-01-11T04:32:07;12.55;;;6.03;;
9485;SDS011;4781;48.776;9.200;2024-01-11T04:34:35;9.93;;;5.85;;
9485;SDS011;4781;48.776;9.200;2024-01-11T04:37:04;8.45;;;5.35;;
9485;SDS011;4781;48.776;9.200;2024-01-11T04:39:33;12.88;;;6.05;;
9485;SDS011;4781;48.776;9.200;2024-01-11T04:42:02;14.65;;;7.33;;
9485;SDS011;4781;48.776;9.200;2024-01-11T04:44:30;11.00;;;5.80;;
9485;SDS011;4781;48.776;9.200;2024-01-11T04:46:59;8.83;;;4.97;;
9485;SDS011;4781;48.776;9.200;2024-01-11T04:49:27;16.00;;;7.75;;
9485;SDS011;4781;48.776;9.200;2024-01-11T04:51:56;10.00;;;6.00;;
9485;SDS011;4781;48.776;9.200;2024-01-11T04:54:24;11.25;;;5.17;;
9485;SDS011;4781;48.776;9.200;2024-01-11T04:56:52;11.57;;;6.00;;
9485;SDS011;4781;48.776;9.200;2024-01-11T04:59:21;12.50;;;7.12;;
9485;SDS011;4781;48.776;9.200;2024-01-11T05:01:49;13.22;;;4.62;;
9485;SDS011;4781;48.776;9.200;2024-01-11T05:04:17;12.85;;;5.95;;
9485;SDS011;4781;48.776;9.200;2024-01-11T05:06:46;11.25;;;5.15;;
9485;SDS011;4781;48.776;9.200;2024-01-11T05:09:14;12.47;;;6.42;;
9485;SDS011;4781;48.776;9.200;2024-01-11T05:11:43;14.68;;;7.12;;
9485;SDS011;4781;48.776;9.200;2024-01-11T05:14:11;11.20;;;5.90;;
9485;SDS011;4781;48.776;9.200;2024-01-11T05:16:39;8.53;;;5.75;;
9485;SDS011;4781;48.776;9.200;2024-01-11T05:19:08;14.25;;;5.80;;
9485;SDS011;4781;48.776;9.200;2024-01-11T05:21:36;9.60;;;5.53;;
9485;SDS011;4781;48.776;9.200;2024-01-11T05:24:05;10.70;;;6.03;;
9485;SDS011;4781;48.776;9.200;2024-01-11T05:26:33;10.38;;;5.78;;
9485;SDS011;4781;48.776;9.200;2024-01-11T05:29:01;26.65;;;8.48;;
9485;SDS011;4781;48.776;9.200;2024-01-11T05:31:30;13.68;;;6.78;;
9485;SDS011;4781;48.776;9.200;2024-01-11T05:33:59;13.38;;;6.80;;
9485;SDS011;4781;48.776;9.200;2024-01-11T05:36:27;9.85;;;6.08;;
9485;SDS011;4781;48.776;9.200;2024-01-11T05:38:56;9.48;;;6.08;;
9485;SDS011;4781;48.776;9.200;2024-01-11T05:41:24;9.40;;;4.83;;
9485;SDS011;4781;48.776;9.200;2024-01-11T05:43:52;9.50;;;4.75;;
9485;SDS011;4781;48.776;9.200;2024-01-11T05:46:21;17.77;;;7.83;;
9485;SDS011;4781;48.776;9.200;2024-01-11T05:48:49;10.15;;;6.42;;
9485;SDS011;4781;48.776;9.200;2024-01-11T05:51:18;11.45;;;4.12;;
9485;SDS011;4781;48.776;9.200;2024-01-11T05:53:46;8.35;;;5.20;;
9485;SDS011;4781;48.776;9.200;2024-01-11T05:56:15;9.00;;;5.00;;
9485;SDS011;4781;48.776;9.200;2024-01-11T05:58:43;11.08;;;5.55;;
9485;SDS011;4781;48.776;9.200;2024-01-11T06:01:12;12.40;;;6.50;;
9485;SDS011;4781;48.776;9.200;2024-01-11T06:03:40;13.55;;;5.83;;
9485;SDS011;4781;48.776;9.200;2024-01-11T06:06:08;11.93;;;5.33;;
9485;SDS011;4781;48.776;9.200;2024-01-11T06:08:37;14.05;;;7.37;;
9485;SDS011;4781;48.776;9.200;2024-01-11T06:11:06;10.32;;;5.60;;
9485;SDS011;4781;48.776;9.200;2024-01-11T06:13:35;9.73;;;5.25;;
9485;SDS011;4781;48.776;9.200;2024-01-11T06:16:03;10.82;;;6.37;;
9485;SDS011;4781;48.776;9.200;2024-01-11T06:18:32;7.85;;;4.78;;
9485;SDS011;4781;48.776;9.200;2024-01-11T06:21:00;9.90;;;5.62;;
9485;SDS011;4781;48.776;9.200;2024-01-11T06:23:28;11.03;;;6.97;;
9485;SDS011;4781;48.776;9.200;2024-01-11T06:25:57;13.53;;;6.37;;
9485;SDS011;4781;48.776;9.200;2024-01-11T06:28:25;9.85;;;5.65;;
9485;SDS011;4781;48.776;9.200;2024-01-11T06:30:54;11.70;;;5.53;;
9485;SDS011;4781;48.776;9.200;2024-01-11T06:33:22;14.55;;;5.67;;
9485;SDS011;4781;48.776;9.200;2024-01-11T06:35:50;11.60;;;6.17;;
9485;SDS011;4781;48.776;9.200;2024-01-11T06:38:19;9.33;;;4.90;;
9485;SDS011;4781;48.776;9.200;2024-01-11T06:40:50;13.78;;;5.75;;
9485;SDS011;4781;48.776;9.200;2024-01-11T06:43:18;10.32;;;5.75;;
9485;SDS011;4781;48.776;9.200;2024-01-11T06:45:47;8.40;;;5.55;;
9485;SDS011;4781;48.776;9.200;2024-01-11T06:48:15;10.90;;;5.22;;
9485;SDS011;4781;48.776;9.200;2024-01-11T06:50:44;10.30;;;6.00;;
9485;SDS011;4781;48.776;9.200;2024-01-11T06:53:13;17.20;;;6.83;;
9485;SDS011;4781;48.776;9.200;2024-01-11T06:55:41;13.53;;;5.42;;
9485;SDS011;4781;48.776;9.200;2024-01-11T06:58:10;10.05;;;6.53;;
9485;SDS011;4781;48.776;9.200;2024-01-11T07:00:38;11.73;;;6.17;;
9485;SDS011;4781;48.776;9.200;2024-01-11T07:03:09;14.60;;;6.62;;
9485;SDS011;4781;48.776;9.200;2024-01-11T07:05:37;9.35;;;6.75;;
9485;SDS011;4781;48.776;9.200;2024-01-11T07:08:06;10.38;;;6.03;;
9485;SDS011;4781;48.776;9.200;2024-01-11T07:10:34;14.58;;;6.35;;
9485;SDS011;4781;48.776;9.200;2024-01-11T07:13:03;10.82;;;6.25;;
9485;SDS011;4781;48.776;9.200;2024-01-11T07:15:32;8.10;;;4.58;;
9485;SDS011;4781;48.776;9.200;2024-01-11T07:18:00;9.98;;;4.92;;
9485;SDS011;4781;48.776;9.200;2024-01-11T07:20:29;14.20;;;5.67;;
9485;SDS011;4781;48.776;9.200;2024-01-11T07:22:58;8.30;;;4.67;;
9485;SDS011;4781;48.776;9.200;2024-01-11T07:25:26;9.48;;;5.58;;
9485;SDS011;4781;48.776;9.200;2024-01-11T07:27:55;13.93;;;7.15;;
9485;SDS011;4781;48.776;9.200;2024-01-11T07:30:23;13.03;;;6.90;;
9485;SDS011;4781;48.776;9.200;2024-01-11T07:32:52;14.95;;;7.25;;
9485;SDS011;4781;48.776;9.200;2024-01-11T07:35:20;21.90;;;8.40;;
9485;SDS011;4781;48.776;9.200;2024-01-11T07:37:48;10.93;;;5.35;;
9485;SDS011;4781;48.776;9.200;2024-01-11T07:40:17;10.82;;;6.03;;
9485;SDS011;4781;48.776;9.200;2024-01-11T07:42:45;7.58;;;4.72;;
9485;SDS011;4781;48.776;9.200;2024-01-11T07:45:14;14.85;;;7.40;;
9485;SDS011;4781;48.776;9.200;2024-01-11T07:47:42;8.18;;;4.37;;
9485;SDS011;4781;48.776;9.200;2024-01-11T07:50:11;19.73;;;7.33;;
9485;SDS011;4781;48.776;9.200;2024-01-11T07:52:39;10.35;;;4.72;;
9485;SDS011;4781;48.776;9.200;2024-01-11T07:55:08;9.70;;;5.37;;
9485;SDS011;4781;48.776;9.200;2024-01-11T07:57:38;14.58;;;6.10;;
9485;SDS011;4781;48.776;9.200;2024-01-11T08:00:07;9.58;;;5.15;;
9485;SDS011;4781;48.776;9.200;2024-01-11T08:02:36;12.37;;;7.58;;
9485;SDS011;4781;48.776;9.200;2024-01-11T08:05:05;11.55;;;5.05;;
9485;SDS011;4781;48.776;9.200;2024-01-11T08:07:34;12.78;;;6.58;;
9485;SDS011;4781;48.776;9.200;2024-01-11T08:10:03;9.70;;;4.97;;
9485;SDS011;4781;48.776;9.200;2024-01-11T08:12:32;8.68;;;5.35;;
9485;SDS011;4781;48.776;9.200;2024-01-11T08:15:00;14.58;;;7.35;;
9485;SDS011;4781;48.776;9.200;2024-01-11T08:17:29;14.53;;;5.70;;
9485;SDS011;4781;48.776;9.200;2024-01-11T08:19:57;14.07;;;6.60;;
9485;SDS011;4781;48.776;9.200;2024-01-11T08:22:26;12.80;;;6.20;;
9485;SDS011;4781;48.776;9.200;2024-01-11T08:24:56;17.52;;;7.03;;
9485;SDS011;4781;48.776;9.200;2024-01-11T08:27:24;10.50;;;5.15;;
9485;SDS011;4781;48.776;9.200;2024-01-11T08:29:53;15.20;;;7.90;;
9485;SDS011;4781;48.776;9.200;2024-01-11T08:32:21;11.65;;;6.80;;
9485;SDS011;4781;48.776;9.200;2024-01-11T08:34:49;10.75;;;6.15;;
9485;SDS011;4781;48.776;9.200;2024-01-11T08:37:18;11.18;;;7.92;;
9485;SDS011;4781;48.776;9.200;2024-01-11T08:39:46;21.80;;;7.95;;
9485;SDS011;4781;48.776;9.200;2024-01-11T08:42:14;13.15;;;6.28;;
9485;SDS011;4781;48.776;9.200;2024-01-11T08:44:43;10.35;;;5.87;;
9485;SDS011;4781;48.776;9.200;2024-01-11T08:47:13;21.20;;;9.38;;
9485;SDS011;4781;48.776;9.200;2024-01-11T08:49:41;11.08;;;6.53;;
9485;SDS011;4781;48.776;9.200;2024-01-11T08:52:10;13.88;;;6.83;;
9485;SDS011;4781;48.776;9.200;2024-01-11T08:54:38;12.65;;;8.53;;
9485;SDS011;4781;48.776;9.200;2024-01-11T08:57:06;21.42;;;7.95;;
9485;SDS011;4781;48.776;9.200;2024-01-11T08:59:35;24.75;;;9.18;;
9485;SDS011;4781;48.776;9.200;2024-01-11T09:02:03;14.13;;;8.40;;
9485;SDS011;4781;48.776;9.200;2024-01-11T09:04:32;11.97;;;6.78;;
9485;SDS011;4781;48.776;9.200;2024-01-11T09:07:00;12.05;;;6.95;;
9485;SDS011;4781;48.776;9.200;2024-01-11T09:09:29;16.95;;;7.85;;
9485;SDS011;4781;48.776;9.200;2024-01-11T09:11:57;11.60;;;7.67;;
9485;SDS011;4781;48.776;9.200;2024-01-11T09:14:25;17.65;;;8.50;;
9485;SDS011;4781;48.776;9.200;2024-01-11T09:16:54;16.90;;;8.75;;
9485;SDS011;4781;48.776;9.200;2024-01-11T09:19:22;16.05;;;8.08;;
9485;SDS011;4781;48.776;9.200;2024-01-11T09:21:51;15.05;;;8.48;;
9485;SDS011;4781;48.776;9.200;2024-01-11T09:27:07;15.00;;;7.75;;
9485;SDS011;4781;48.776;9.200;2024-01-11T09:29:35;20.08;;;8.55;;
9485;SDS011;4781;48.776;9.200;2024-01-11T09:32:05;10.68;;;6.75;;
9485;SDS011;4781;48.776;9.200;2024-01-11T09:34:34;14.47;;;8.60;;
9485;SDS011;4781;48.776;9.200;2024-01-11T09:37:02;16.85;;;8.80;;
9485;SDS011;4781;48.776;9.200;2024-01-11T09:39:31;18.25;;;9.18;;
9485;SDS011;4781;48.776;9.200;2024-01-11T09:42:04;18.42;;;9.95;;
9485;SDS011;4781;48.776;9.200;2024-01-11T09:44:36;20.92;;;11.08;;
9485;SDS011;4781;48.776;9.200;2024-01-11T09:47:10;19.42;;;9.75;;
9485;SDS011;4781;48.776;9.200;2024-01-11T09:49:37;17.60;;;8.48;;
9485;SDS011;4781;48.776;9.200;2024-01-11T09:52:07;23.77;;;10.88;;
9485;SDS011;4781;48.776;9.200;2024-01-11T09:54:40;22.50;;;9.88;;
9485;SDS011;4781;48.776;9.200;2024-01-11T09:57:09;18.90;;;8.48;;
9485;SDS011;4781;48.776;9.200;2024-01-11T09:59:37;20.12;;;10.98;;
9485;SDS011;4781;48.776;9.200;2024-01-11T10:02:07;19.45;;;11.60;;
9485;SDS011;4781;48.776;9.200;2024-01-11T10:04:37;25.97;;;11.20;;
9485;SDS011;4781;48.776;9.200;2024-01-11T10:07:07;25.23;;;11.33;;
9485;SDS011;4781;48.776;9.200;2024-01-11T10:09:36;22.95;;;10.82;;
9485;SDS011;4781;48.776;9.200;2024-01-11T10:12:05;22.40;;;9.60;;
9485;SDS011;4781;48.776;9.200;2024-01-11T10:14:33;30.30;;;11.78;;
9485;SDS011;4781;48.776;9.200;2024-01-11T10:17:02;20.35;;;11.35;;
9485;SDS011;4781;48.776;9.200;2024-01-11T10:19:31;23.35;;;10.45;;
9485;SDS011;4781;48.776;9.200;2024-01-11T10:21:59;22.15;;;9.88;;
9485;SDS011;4781;48.776;9.200;2024-01-11T10:24:28;22.35;;;10.75;;
9485;SDS011;4781;48.776;9.200;2024-01-11T10:26:57;24.85;;;10.72;;
9485;SDS011;4781;48.776;9.200;2024-01-11T10:29:28;22.07;;;11.40;;
9485;SDS011;4781;48.776;9.200;2024-01-11T10:32:03;25.45;;;11.20;;
9485;SDS011;4781;48.776;9.200;2024-01-11T10:34:32;26.20;;;12.80;;
9485;SDS011;4781;48.776;9.200;2024-01-11T10:37:02;26.73;;;11.60;;
9485;SDS011;4781;48.776;9.200;2024-01-11T10:39:32;22.48;;;10.72;;
9485;SDS011;4781;48.776;9.200;2024-01-11T10:42:08;22.98;;;11.15;;
9485;SDS011;4781;48.776;9.200;2024-01-11T10:44:34;25.02;;;11.57;;
9485;SDS011;4781;48.776;9.200;2024-01-11T10:47:03;25.17;;;11.55;;
9485;SDS011;4781;48.776;9.200;2024-01-11T10:49:33;24.90;;;11.03;;
9485;SDS011;4781;48.776;9.200;2024-01-11T10:52:04;23.05;;;11.10;;
9485;SDS011;4781;48.776;9.200;2024-01-11T10:54:35;26.82;;;13.22;;
9485;SDS011;4781;48.776;9.200;2024-01-11T10:57:07;26.40;;;12.20;;
9485;SDS011;4781;48.776;9.200;2024-01-11T10:59:38;28.90;;;13.32;;
9485;SDS011;4781;48.776;9.200;2024-01-11T11:02:08;24.55;;;12.25;;
9485;SDS011;4781;48.776;9.200;2024-01-11T11:04:41;23.70;;;11.08;;
9485;SDS011;4781;48.776;9.200;2024-01-11T11:07:11;26.00;;;12.40;;
9485;SDS011;4781;48.776;9.200;2024-01-11T11:09:41;26.97;;;12.70;;
9485;SDS011;4781;48.776;9.200;2024-01-11T11:12:11;24.77;;;12.15;;
9485;SDS011;4781;48.776;9.200;2024-01-11T11:14:40;30.77;;;13.43;;
9485;SDS011;4781;48.776;9.200;2024-01-11T11:17:10;23.98;;;12.18;;
9485;SDS011;4781;48.776;9.200;2024-01-11T11:19:38;23.05;;;11.38;;
9485;SDS011;4781;48.776;9.200;2024-01-11T11:22:07;21.87;;;11.00;;
9485;SDS011;4781;48.776;9.200;2024-01-11T11:24:35;31.60;;;12.58;;
9485;SDS011;4781;48.776;9.200;2024-01-11T11:27:05;21.62;;;11.53;;
9485;SDS011;4781;48.776;9.200;2024-01-11T11:29:34;26.55;;;11.97;;
9485;SDS011;4781;48.776;9.200;2024-01-11T11:32:02;25.50;;;12.10;;
9485;SDS011;4781;48.776;9.200;2024-01-11T11:37:22;28.50;;;12.60;;
9485;SDS011;4781;48.776;9.200;2024-01-11T11:39:46;27.05;;;11.93;;
9485;SDS011;4781;48.776;9.200;2024-01-11T11:42:15;24.23;;;11.95;;
9485;SDS011;4781;48.776;9.200;2024-01-11T11:44:49;27.42;;;12.70;;
9485;SDS011;4781;48.776;9.200;2024-01-11T11:49:56;23.65;;;11.85;;
9485;SDS011;4781;48.776;9.200;2024-01-11T11:52:27;21.10;;;10.50;;
9485;SDS011;4781;48.776;9.200;2024-01-11T11:54:56;26.82;;;12.95;;
9485;SDS011;4781;48.776;9.200;2024-01-11T11:57:26;19.57;;;11.08;;
9485;SDS011;4781;48.776;9.200;2024-01-11T11:59:58;34.20;;;12.50;;
9485;SDS011;4781;48.776;9.200;2024-01-11T12:02:28;27.52;;;12.73;;
9485;SDS011;4781;48.776;9.200;2024-01-11T12:04:56;23.20;;;12.20;;
9485;SDS011;4781;48.776;9.200;2024-01-11T12:07:25;29.80;;;11.63;;
9485;SDS011;4781;48.776;9.200;2024-01-11T12:09:54;22.70;;;11.73;;
9485;SDS011;4781;48.776;9.200;2024-01-11T12:12:23;22.27;;;12.25;;
9485;SDS011;4781;48.776;9.200;2024-01-11T12:14:53;23.05;;;11.30;;
9485;SDS011;4781;48.776;9.200;2024-01-11T12:17:21;23.75;;;11.45;;
9485;SDS011;4781;48.776;9.200;2024-01-11T12:19:52;29.27;;;13.15;;
9485;SDS011;4781;48.776;9.200;2024-01-11T12:22:19;27.58;;;12.65;;
9485;SDS011;4781;48.776;9.200;2024-01-11T12:24:48;24.10;;;11.93;;
9485;SDS011;4781;48.776;9.200;2024-01-11T12:27:17;25.23;;;12.40;;
9485;SDS011;4781;48.776;9.200;2024-01-11T12:29:46;28.02;;;12.47;;
9485;SDS011;4781;48.776;9.200;2024-01-11T12:32:15;30.90;;;11.95;;
9485;SDS011;4781;48.776;9.200;2024-01-11T12:34:44;25.45;;;10.98;;
9485;SDS011;4781;48.776;9.200;2024-01-11T12:37:12;25.65;;;11.57;;
9485;SDS011;4781;48.776;9.200;2024-01-11T12:39:42;22.17;;;11.60;;
9485;SDS011;4781;48.776;9.200;2024-01-11T12:42:11;22.50;;;11.10;;
9485;SDS011;4781;48.776;9.200;2024-01-11T12:44:40;23.62;;;11.73;;
9485;SDS011;4781;48.776;9.200;2024-01-11T12:47:09;22.40;;;12.00;;
9485;SDS011;4781;48.776;9.200;2024-01-11T12:49:42;20.95;;;12.00;;
9485;SDS011;4781;48.776;9.200;2024-01-11T12:52:16;23.73;;;11.57;;
9485;SDS011;4781;48.776;9.200;2024-01-11T12:54:45;25.23;;;11.08;;
9485;SDS011;4781;48.776;9.200;2024-01-11T12:57:19;24.57;;;12.50;;
9485;SDS011;4781;48.776;9.200;2024-01-11T12:59:48;26.30;;;12.03;;
9485;SDS011;4781;48.776;9.200;2024-01-11T13:02:17;27.98;;;12.20;;
9485;SDS011;4781;48.776;9.200;2024-01-11T13:04:45;24.15;;;11.05;;
9485;SDS011;4781;48.776;9.200;2024-01-11T13:07:14;27.02;;;11.78;;
9485;SDS011;4781;48.776;9.200;2024-01-11T13:09:42;21.87;;;11.53;;
9485;SDS011;4781;48.776;9.200;2024-01-11T13:12:10;27.32;;;12.90;;
9485;SDS011;4781;48.776;9.200;2024-01-11T13:14:39;22.98;;;11.70;;
9485;SDS011;4781;48.776;9.200;2024-01-11T13:17:07;24.05;;;11.28;;
9485;SDS011;4781;48.776;9.200;2024-01-11T13:19:36;24.80;;;12.45;;
9485;SDS011;4781;48.776;9.200;2024-01-11T13:22:05;26.35;;;12.03;;
9485;SDS011;4781;48.776;9.200;2024-01-11T13:24:33;25.77;;;12.80;;
9485;SDS011;4781;48.776;9.200;2024-01-11T13:27:02;24.10;;;12.93;;
9485;SDS011;4781;48.776;9.200;2024-01-11T13:29:30;23.75;;;11.53;;
9485;SDS011;4781;48.776;9.200;2024-01-11T13:31:59;23.98;;;12.35;;
9485;SDS011;4781;48.776;9.200;2024-01-11T13:34:27;23.52;;;11.35;;
9485;SDS011;4781;48.776;9.200;2024-01-11T13:36:55;23.55;;;11.08;;
9485;SDS011;4781;48.776;9.200;2024-01-11T13:39:25;24.23;;;11.63;;
9485;SDS011;4781;48.776;9.200;2024-01-11T13:41:54;22.85;;;10.80;;
9485;SDS011;4781;48.776;9.200;2024-01-11T13:44:22;28.35;;;12.10;;
9485;SDS011;4781;48.776;9.200;2024-01-11T13:46:50;22.05;;;10.95;;
9485;SDS011;4781;48.776;9.200;2024-01-11T13:49:19;24.10;;;13.05;;
9485;SDS011;4781;48.776;9.200;2024-01-11T13:51:48;27.58;;;12.33;;
9485;SDS011;4781;48.776;9.200;2024-01-11T13:54:16;26.75;;;12.30;;
9485;SDS011;4781;48.776;9.200;2024-01-11T13:56:45;21.52;;;11.85;;
9485;SDS011;4781;48.776;9.200;2024-01-11T13:59:13;22.25;;;11.78;;
9485;SDS011;4781;48.776;9.200;2024-01-11T14:01:42;25.65;;;11.68;;
9485;SDS011;4781;48.776;9.200;2024-01-11T14:04:10;25.95;;;11.88;;
9485;SDS011;4781;48.776;9.200;2024-01-11T14:06:39;28.85;;;12.68;;
9485;SDS011;4781;48.776;9.200;2024-01-11T14:09:07;22.55;;;10.80;;
9485;SDS011;4781;48.776;9.200;2024-01-11T14:11:36;24.32;;;11.53;;
9485;SDS011;4781;48.776;9.200;2024-01-11T14:14:04;23.32;;;11.38;;
9485;SDS011;4781;48.776;9.200;2024-01-11T14:16:33;27.20;;;12.68;;
9485;SDS011;4781;48.776;9.200;2024-01-11T14:19:01;32.10;;;12.25;;
9485;SDS011;4781;48.776;9.200;2024-01-11T14:21:30;26.60;;;12.45;;
9485;SDS011;4781;48.776;9.200;2024-01-11T14:23:58;26.33;;;12.53;;
9485;SDS011;4781;48.776;9.200;2024-01-11T14:26:26;27.75;;;12.13;;
9485;SDS011;4781;48.776;9.200;2024-01-11T14:28:55;24.18;;;12.15;;
9485;SDS011;4781;48.776;9.200;2024-01-11T14:31:23;24.75;;;12.47;;
9485;SDS011;4781;48.776;9.200;2024-01-11T14:33:52;24.40;;;11.60;;
9485;SDS011;4781;48.776;9.200;2024-01-11T14:36:20;23.85;;;11.15;;
9485;SDS011;4781;48.776;9.200;2024-01-11T14:38:49;22.77;;;11.83;;
9485;SDS011;4781;48.776;9.200;2024-01-11T14:41:17;27.55;;;11.33;;
9485;SDS011;4781;48.776;9.200;2024-01-11T14:43:46;24.12;;;11.05;;
9485;SDS011;4781;48.776;9.200;2024-01-11T14:46:14;24.60;;;11.50;;
9485;SDS011;4781;48.776;9.200;2024-01-11T14:48:43;24.45;;;10.98;;
9485;SDS011;4781;48.776;9.200;2024-01-11T14:51:11;28.15;;;11.83;;
9485;SDS011;4781;48.776;9.200;2024-01-11T14:53:40;20.95;;;10.53;;
9485;SDS011;4781;48.776;9.200;2024-01-11T14:56:08;24.37;;;11.73;;
9485;SDS011;4781;48.776;9.200;2024-01-11T14:58:38;25.20;;;12.18;;
9485;SDS011;4781;48.776;9.200;2024-01-11T15:01:07;20.95;;;10.55;;
9485;SDS011;4781;48.776;9.200;2024-01-11T15:03:35;22.35;;;11.75;;
9485;SDS011;4781;48.776;9.200;2024-01-11T15:06:03;24.90;;;11.33;;
9485;SDS011;4781;48.776;9.200;2024-01-11T15:08:32;24.72;;;10.95;;
9485;SDS011;4781;48.776;9.200;2024-01-11T15:11:00;26.75;;;10.98;;
9485;SDS011;4781;48.776;9.200;2024-01-11T15:13:29;27.73;;;12.45;;
9485;SDS011;4781;48.776;9.200;2024-01-11T15:16:00;26.68;;;11.30;;